Time;durP1;ratioP1;P1;durP2;ratioP2;P2;SDS_P1;SDS_P2;PMS_P1;PMS_P2;Temp;Humidity;BMP_temperature;BMP_pressure;BME280_temperature;BME280_humidity;BME280_pressure;Samples;Min_cycle;Max_cycle;Signal;HPM_P1;HPM_P2
2022/06/13 00:01:55;;;;;;;0.83;0.80;;;;;;;20.18;42.25;98926.53;5073335;28;38890;-78
2022/06/13 00:04:23;;;;;;;0.70;0.70;;;;;;;20.18;42.21;98927.38;5073213;28;41028;-78
2022/06/13 00:06:50;;;;;;;0.80;0.80;;;;;;;20.10;42.21;98932.72;5090005;28;43062;-76
2022/06/13 00:09:18;;;;;;;0.73;0.70;;;;;;;20.11;42.24;98942.47;5090021;28;42314;-77
2022/06/13 00:11:46;;;;;;;0.73;0.70;;;;;;;20.04;42.33;98946.75;5090009;28;40224;-77
2022/06/13 00:14:14;;;;;;;0.63;0.63;;;;;;;19.98;42.30;98947.38;5093588;28;41872;-78
2022/06/13 00:16:43;;;;;;;1.00;0.60;;;;;;;19.71;42.25;98914.19;5093259;28;42900;-80
2022/06/13 00:19:11;;;;;;;1.43;0.70;;;;;;;19.88;42.42;98955.53;5093363;28;40646;-76
2022/06/13 00:21:39;;;;;;;1.00;0.70;;;;;;;19.78;42.18;98940.47;5093209;28;39188;-76
2022/06/13 00:24:08;;;;;;;0.70;0.60;;;;;;;19.83;42.16;98959.66;5093329;28;40430;-78
2022/06/13 00:26:38;;;;;;;1.40;1.07;;;;;;;19.66;42.44;98940.66;5076375;28;41691;-79
2022/06/13 00:29:06;;;;;;;0.90;0.80;;;;;;;19.66;42.62;98953.22;5093104;28;43221;-75
2022/06/13 00:31:34;;;;;;;1.00;0.80;;;;;;;19.69;42.53;98971.75;5076132;28;39134;-78
2022/06/13 00:34:03;;;;;;;0.80;0.70;;;;;;;19.65;43.07;98975.75;5092845;28;42778;-77
2022/06/13 00:36:31;;;;;;;1.03;0.80;;;;;;;19.62;42.83;98978.75;5092795;28;42863;-77
2022/06/13 00:38:58;;;;;;;1.63;1.03;;;;;;;19.56;42.85;98984.69;5094286;28;43163;-79
2022/06/13 00:41:30;;;;;;;0.80;0.80;;;;;;;19.51;43.41;98993.22;5093134;28;39585;-77
2022/06/13 00:43:59;;;;;;;0.60;0.60;;;;;;;19.47;43.63;98989.09;5076712;28;39624;-78
2022/06/13 00:46:30;;;;;;;0.70;0.70;;;;;;;19.43;43.22;98993.06;5076112;28;42345;-76
2022/06/13 00:49:02;;;;;;;0.90;0.90;;;;;;;19.42;43.51;98988.69;5092251;28;41102;-78
2022/06/13 00:51:35;;;;;;;1.53;0.80;;;;;;;19.35;43.29;98982.22;5093296;28;39629;-75
2022/06/13 00:54:04;;;;;;;1.17;0.80;;;;;;;19.40;43.77;98985.31;5076158;28;41148;-78
2022/06/13 00:56:36;;;;;;;1.43;0.80;;;;;;;19.41;43.48;98984.31;5075762;28;41416;-78
2022/06/13 00:59:06;;;;;;;0.70;0.70;;;;;;;19.45;43.64;98983.03;5091651;28;42255;-78
2022/06/13 01:01:35;;;;;;;0.90;0.90;;;;;;;19.46;43.35;98978.50;5092644;28;39976;-79
2022/06/13 01:04:04;;;;;;;0.83;0.60;;;;;;;19.46;43.55;98990.09;5092775;28;41636;-79
2022/06/13 01:06:37;;;;;;;0.80;0.80;;;;;;;19.42;43.40;98974.41;5093653;28;43820;-76
2022/06/13 01:09:08;;;;;;;0.90;0.50;;;;;;;19.35;43.24;98983.06;5075624;28;41021;-74
2022/06/13 01:11:38;;;;;;;1.50;0.70;;;;;;;19.28;43.60;98975.78;5075837;28;39626;-78
2022/06/13 01:14:38;;;;;;;0.50;0.50;;;;;;;19.14;44.04;98976.25;5093582;28;42466;-79
2022/06/13 01:17:22;;;;;;;0.80;0.70;;;;;;;18.91;44.26;98947.09;5075567;28;41653;-75
2022/06/13 01:20:13;;;;;;;0.80;0.80;;;;;;;18.86;44.57;98970.81;5093719;28;43171;-79
2022/06/13 01:23:14;;;;;;;1.93;0.77;;;;;;;18.74;45.36;98977.34;5089627;28;40808;-80
2022/06/13 01:26:20;;;;;;;0.83;0.83;;;;;;;18.62;45.35;98975.81;5089640;28;42324;-76
2022/06/13 01:29:12;;;;;;;1.90;0.80;;;;;;;18.50;45.64;98979.59;5051804;28;41659;-80
2022/06/13 01:31:48;;;;;;;0.70;0.70;;;;;;;18.39;45.56;98977.94;5092647;28;40861;-80
2022/06/13 01:34:21;;;;;;;2.00;0.90;;;;;;;18.30;46.17;98984.97;5092071;28;38509;-76
2022/06/13 01:37:03;;;;;;;1.13;0.90;;;;;;;18.24;46.22;98974.81;5075517;28;41978;-75
2022/06/13 01:39:43;;;;;;;0.70;0.70;;;;;;;18.17;46.04;98970.19;5091799;28;43765;-80
2022/06/13 01:42:25;;;;;;;1.40;0.70;;;;;;;17.99;46.64;98964.66;5092310;28;41531;-78
2022/06/13 01:45:04;;;;;;;1.17;0.70;;;;;;;18.03;46.67;98974.13;5075549;28;40135;-74
2022/06/13 01:47:38;;;;;;;2.17;1.10;;;;;;;17.84;47.12;98960.69;5074914;28;40720;-74
2022/06/13 01:50:18;;;;;;;1.63;0.90;;;;;;;17.83;47.23;98973.22;5075604;28;41643;-78
2022/06/13 01:52:53;;;;;;;1.50;0.73;;;;;;;17.78;47.78;98971.97;5088908;28;42535;-74
2022/06/13 01:55:26;;;;;;;1.23;1.03;;;;;;;17.74;47.42;98975.91;5090161;28;39888;-76
2022/06/13 01:58:03;;;;;;;2.20;1.07;;;;;;;17.68;47.84;98963.06;5074576;28;40856;-76
2022/06/13 02:00:33;;;;;;;1.13;1.00;;;;;;;17.63;48.07;98962.59;5089084;28;43785;-76
2022/06/13 02:03:14;;;;;;;1.80;1.00;;;;;;;17.59;47.95;98957.50;5092709;28;42973;-79
2022/06/13 02:05:46;;;;;;;2.47;1.20;;;;;;;17.57;48.03;98962.16;5089125;28;39828;-76
2022/06/13 02:08:24;;;;;;;2.60;1.10;;;;;;;17.51;48.61;98957.34;5092082;28;41605;-79
2022/06/13 02:10:56;;;;;;;2.40;1.10;;;;;;;17.36;48.49;98944.47;5089074;28;43839;-77
2022/06/13 02:13:33;;;;;;;1.13;0.90;;;;;;;17.43;48.91;98967.88;5089768;28;43270;-78
2022/06/13 02:16:09;;;;;;;1.30;1.00;;;;;;;17.36;48.94;98961.38;5089995;28;39838;-75
2022/06/13 02:18:51;;;;;;;3.80;1.00;;;;;;;17.30;48.74;98959.28;5090736;28;42828;-77
2022/06/13 02:21:22;;;;;;;2.47;0.80;;;;;;;17.28;48.83;98969.25;5088618;28;42471;-77
2022/06/13 02:23:54;;;;;;;2.27;1.00;;;;;;;17.27;49.39;98975.59;5074700;28;41742;-75
2022/06/13 02:26:28;;;;;;;1.57;1.20;;;;;;;17.21;49.49;98974.28;5091731;28;38408;-76
2022/06/13 02:29:00;;;;;;;1.63;1.00;;;;;;;17.13;49.72;98957.22;5074513;28;40653;-76
2022/06/13 02:31:35;;;;;;;1.63;1.10;;;;;;;17.18;49.87;98971.06;5074455;28;41814;-79
2022/06/13 02:34:10;;;;;;;1.70;1.07;;;;;;;17.13;49.65;98960.75;5091529;28;42299;-76
2022/06/13 02:36:42;;;;;;;1.13;1.00;;;;;;;17.11;49.75;98969.88;5088798;28;40786;-74
2022/06/13 02:39:17;;;;;;;1.73;1.30;;;;;;;17.07;49.66;98969.28;5074499;28;40831;-79
2022/06/13 02:41:51;;;;;;;1.40;0.90;;;;;;;17.02;49.36;98962.66;5091634;28;41648;-79
2022/06/13 02:44:27;;;;;;;1.17;1.00;;;;;;;16.97;49.74;98959.53;5090956;28;41548;-80
2022/06/13 02:46:58;;;;;;;1.47;0.90;;;;;;;16.93;49.67;98966.16;5074350;28;38956;-74
2022/06/13 02:49:34;;;;;;;3.13;1.63;;;;;;;16.86;49.66;98971.16;5090378;28;41911;-74
2022/06/13 02:52:09;;;;;;;2.73;1.10;;;;;;;16.85;49.54;98969.47;5091596;28;42839;-76
2022/06/13 02:54:46;;;;;;;2.37;1.00;;;;;;;16.86;50.00;98984.53;5090561;28;42150;-78
2022/06/13 02:57:27;;;;;;;1.37;0.90;;;;;;;16.91;50.04;98979.66;5088039;28;39919;-75
2022/06/13 03:00:11;;;;;;;1.10;1.00;;;;;;;17.03;49.61;98985.78;5091066;28;42500;-78
2022/06/13 03:02:47;;;;;;;2.67;1.10;;;;;;;17.04;49.50;98974.09;5087736;28;43735;-78
2022/06/13 03:05:30;;;;;;;1.30;0.93;;;;;;;17.18;49.28;98981.75;5089408;28;42067;-80
2022/06/13 03:08:06;;;;;;;1.00;0.90;;;;;;;17.23;49.11;98982.19;5088444;28;39911;-77
2022/06/13 03:10:42;;;;;;;3.10;1.00;;;;;;;17.22;49.51;98975.13;5089166;28;41827;-80
2022/06/13 03:13:30;;;;;;;2.07;1.30;;;;;;;17.30;50.36;98982.50;5088370;28;43321;-80
2022/06/13 03:16:02;;;;;;;2.87;1.13;;;;;;;17.29;49.65;98986.16;5087917;28;42038;-77
2022/06/13 03:18:36;;;;;;;1.80;1.00;;;;;;;17.17;49.96;98978.25;5088932;28;40013;-78
2022/06/13 03:21:10;;;;;;;1.00;0.90;;;;;;;17.24;49.82;98989.25;5087799;28;41768;-76
2022/06/13 03:23:42;;;;;;;1.33;1.03;;;;;;;17.20;49.56;98993.16;5073538;28;42820;-79
2022/06/13 03:26:14;;;;;;;1.40;0.90;;;;;;;17.07;49.54;98974.66;5087901;28;42298;-78
2022/06/13 03:28:47;;;;;;;3.20;0.97;;;;;;;17.15;49.88;98987.38;5090511;28;40173;-79
2022/06/13 03:31:19;;;;;;;2.30;1.00;;;;;;;17.04;50.18;98972.25;5088823;28;41882;-75
2022/06/13 03:33:52;;;;;;;1.70;0.80;;;;;;;17.07;50.51;98987.19;5073740;28;41871;-74
2022/06/13 03:36:27;;;;;;;1.60;1.10;;;;;;;17.04;50.97;98982.97;5073660;28;41160;-76
2022/06/13 03:39:00;;;;;;;2.87;1.40;;;;;;;17.01;50.79;98990.41;5090300;28;40832;-77
2022/06/13 03:41:34;;;;;;;3.23;1.20;;;;;;;16.98;51.64;98982.63;5090955;28;40446;-76
2022/06/13 03:44:10;;;;;;;1.30;1.20;;;;;;;17.01;50.90;98987.72;5073192;28;41896;-76
2022/06/13 03:46:45;;;;;;;2.40;1.30;;;;;;;17.07;51.56;98989.84;5090443;28;41735;-76
2022/06/13 03:49:20;;;;;;;3.47;1.80;;;;;;;17.00;51.58;98981.53;5091479;28;39933;-77
2022/06/13 03:51:53;;;;;;;2.43;1.50;;;;;;;17.07;51.34;99004.09;5091206;28;42764;-77
2022/06/13 03:54:25;;;;;;;2.27;1.17;;;;;;;16.98;52.23;98987.97;5093278;28;42862;-77
2022/06/13 03:57:00;;;;;;;1.20;1.10;;;;;;;17.07;51.96;98997.88;5091996;28;42389;-80
2022/06/13 03:59:33;;;;;;;2.17;1.00;;;;;;;17.05;52.02;99007.91;5093273;28;39826;-77
2022/06/13 04:02:05;;;;;;;1.73;1.30;;;;;;;17.04;51.99;99014.22;5090900;28;41933;-78
2022/06/13 04:04:36;;;;;;;3.40;1.43;;;;;;;17.03;52.33;99012.53;5093229;28;43606;-80
2022/06/13 04:07:06;;;;;;;2.50;1.10;;;;;;;17.00;52.78;99008.28;5090716;28;42355;-76
2022/06/13 04:09:38;;;;;;;1.43;1.17;;;;;;;16.93;53.16;99003.59;5093473;28;39856;-80
2022/06/13 04:12:30;;;;;;;3.67;1.40;;;;;;;16.95;52.96;99009.66;5090969;28;41496;-77
2022/06/13 04:15:35;;;;;;;2.20;1.17;;;;;;;16.95;52.78;99021.19;5093891;28;44314;-76
2022/06/13 04:18:10;;;;;;;1.70;1.60;;;;;;;17.00;52.78;99018.13;5092545;28;42975;-74
2022/06/13 04:20:48;;;;;;;1.30;1.20;;;;;;;16.94;52.71;99000.78;5076992;28;38754;-78
2022/06/13 04:23:23;;;;;;;2.03;1.07;;;;;;;17.16;52.93;99021.19;5093164;28;41565;-79
2022/06/13 04:25:58;;;;;;;1.13;1.00;;;;;;;17.26;52.90;99027.44;5090543;28;42884;-76
2022/06/13 04:28:34;;;;;;;2.40;1.17;;;;;;;17.28;53.19;99019.28;5090951;28;42227;-79
2022/06/13 04:31:05;;;;;;;1.57;1.07;;;;;;;17.45;53.41;99032.84;5093368;28;38747;-77
2022/06/13 04:33:39;;;;;;;1.20;1.10;;;;;;;17.59;53.00;99039.69;5091553;28;41701;-78
2022/06/13 04:36:11;;;;;;;2.30;1.40;;;;;;;17.75;52.80;99036.53;5090205;28;43820;-80
2022/06/13 04:38:43;;;;;;;2.23;1.40;;;;;;;17.96;52.82;99031.91;5075829;28;42252;-77
2022/06/13 04:41:13;;;;;;;2.80;1.47;;;;;;;18.13;52.14;99039.28;5090486;28;40246;-78
2022/06/13 04:43:44;;;;;;;3.83;1.80;;;;;;;18.24;51.77;99044.53;5092988;28;41710;-79
2022/06/13 04:46:15;;;;;;;1.53;1.10;;;;;;;18.37;51.07;99046.09;5093404;28;41811;-75
2022/06/13 04:48:46;;;;;;;1.47;1.37;;;;;;;18.41;51.47;99044.81;5090836;28;43397;-78
2022/06/13 04:51:17;;;;;;;1.97;1.10;;;;;;;18.44;51.75;99045.38;5093290;28;40386;-77
2022/06/13 04:53:55;;;;;;;3.03;1.50;;;;;;;18.55;51.19;99047.06;5091529;28;42563;-79
2022/06/13 04:56:24;;;;;;;1.87;1.40;;;;;;;18.56;51.50;99043.41;5076028;28;43299;-77
2022/06/13 04:58:54;;;;;;;3.30;1.37;;;;;;;18.54;51.24;99050.75;5075086;28;41658;-78
2022/06/13 05:01:25;;;;;;;2.63;1.70;;;;;;;18.67;50.94;99062.06;5092819;28;39927;-78
2022/06/13 05:03:55;;;;;;;3.10;1.30;;;;;;;18.80;50.93;99067.13;5091493;28;42227;-74
2022/06/13 05:06:29;;;;;;;1.83;1.60;;;;;;;18.91;50.82;99064.31;5093932;28;42681;-75
2022/06/13 05:09:01;;;;;;;2.57;1.50;;;;;;;19.01;50.01;99079.41;5092141;28;42289;-75
2022/06/13 05:11:34;;;;;;;2.10;1.27;;;;;;;19.00;50.04;99075.03;5089854;28;39924;-75
2022/06/13 05:14:07;;;;;;;2.03;1.40;;;;;;;19.17;49.98;99091.38;5091373;28;42414;-76
2022/06/13 05:16:52;;;;;;;2.67;1.20;;;;;;;19.28;49.83;99085.88;5089421;28;42509;-76
2022/06/13 05:19:42;;;;;;;1.40;1.07;;;;;;;19.25;49.69;99072.72;5091864;28;42245;-78
2022/06/13 05:22:25;;;;;;;2.17;1.67;;;;;;;19.40;49.70;99098.13;5089794;28;40681;-79
2022/06/13 05:25:17;;;;;;;3.73;1.40;;;;;;;19.59;49.37;99103.47;5075426;28;41877;-75
2022/06/13 05:27:45;;;;;;;2.40;1.43;;;;;;;19.79;48.90;99100.69;5089821;28;42464;-77
2022/06/13 05:30:15;;;;;;;1.67;1.40;;;;;;;19.88;48.63;99105.19;5092532;28;42374;-77
2022/06/13 05:32:43;;;;;;;3.73;1.17;;;;;;;19.94;48.64;99116.19;5092214;28;39932;-78
2022/06/13 05:35:14;;;;;;;2.83;1.50;;;;;;;19.86;48.39;99094.59;5075466;28;41442;-77
2022/06/13 05:37:43;;;;;;;1.57;1.20;;;;;;;20.02;47.94;99115.47;5075294;28;42653;-79
2022/06/13 05:40:16;;;;;;;3.50;1.43;;;;;;;20.12;47.91;99116.25;5092187;28;42360;-79
2022/06/13 05:42:47;;;;;;;2.73;1.40;;;;;;;20.25;47.45;99124.81;5075361;28;38689;-76
2022/06/13 05:45:17;;;;;;;5.60;1.60;;;;;;;20.40;47.23;99136.75;5075516;28;40350;-77
2022/06/13 05:47:47;;;;;;;1.23;1.03;;;;;;;20.54;46.82;99134.56;5074636;28;43616;-77
2022/06/13 05:50:17;;;;;;;2.90;1.27;;;;;;;20.72;46.39;99140.81;5090143;28;41758;-78
2022/06/13 05:52:47;;;;;;;3.33;1.77;;;;;;;20.97;46.31;99139.19;5074836;28;39968;-77
2022/06/13 05:55:16;;;;;;;3.07;1.50;;;;;;;21.10;45.82;99140.50;5091815;28;41863;-80
2022/06/13 05:57:44;;;;;;;2.33;1.87;;;;;;;21.17;45.61;99148.78;5074734;28;43012;-77
2022/06/13 06:00:17;;;;;;;1.60;1.20;;;;;;;21.11;45.57;99147.56;5093371;28;42169;-81
2022/06/13 06:02:45;;;;;;;1.97;1.30;;;;;;;21.09;46.08;99138.81;5075041;28;39911;-78
2022/06/13 06:05:13;;;;;;;1.87;1.20;;;;;;;21.21;46.07;99146.66;5075076;28;41475;-81
2022/06/13 06:07:41;;;;;;;1.43;1.03;;;;;;;21.29;45.82;99144.88;5091815;28;42809;-77
2022/06/13 06:10:18;;;;;;;2.97;1.23;;;;;;;21.40;45.51;99144.63;5091358;28;42326;-80
2022/06/13 06:12:46;;;;;;;2.60;1.30;;;;;;;21.35;45.59;99138.88;5090226;28;40413;-82
2022/06/13 06:15:14;;;;;;;2.00;1.10;;;;;;;21.25;45.38;99158.81;5075012;28;41783;-79
2022/06/13 06:17:42;;;;;;;3.27;1.43;;;;;;;21.15;45.67;99148.94;5091252;28;42658;-81
2022/06/13 06:20:16;;;;;;;1.93;1.00;;;;;;;21.17;45.97;99157.72;5074757;28;41278;-76
2022/06/13 06:22:44;;;;;;;4.33;1.70;;;;;;;21.17;45.39;99165.78;5091477;28;39681;-76
2022/06/13 06:25:12;;;;;;;2.97;1.40;;;;;;;21.30;45.19;99162.72;5074674;28;40416;-79
2022/06/13 06:27:41;;;;;;;4.13;1.20;;;;;;;21.41;45.28;99158.94;5074477;28;41712;-76
2022/06/13 06:30:14;;;;;;;2.50;1.40;;;;;;;21.51;44.72;99165.09;5092521;28;42262;-79
2022/06/13 06:32:42;;;;;;;2.23;1.30;;;;;;;21.61;44.83;99170.38;5074562;28;40064;-79
2022/06/13 06:35:10;;;;;;;1.53;1.03;;;;;;;21.72;44.59;99179.03;5091978;28;42647;-76
2022/06/13 06:37:40;;;;;;;1.93;1.00;;;;;;;21.86;44.61;99175.78;5091227;28;42640;-77
2022/06/13 06:40:09;;;;;;;2.70;1.20;;;;;;;22.06;44.06;99175.56;5092562;28;42198;-77
2022/06/13 06:42:36;;;;;;;3.03;1.40;;;;;;;22.22;43.90;99183.72;5091200;28;40124;-75
2022/06/13 06:45:08;;;;;;;1.97;1.50;;;;;;;22.34;43.45;99184.28;5074424;28;41589;-78
2022/06/13 06:47:39;;;;;;;1.90;1.00;;;;;;;22.45;43.54;99175.91;5090875;28;43322;-82
2022/06/13 06:50:08;;;;;;;2.07;1.30;;;;;;;22.65;43.45;99181.84;5091332;28;40885;-76
2022/06/13 06:52:35;;;;;;;1.80;1.30;;;;;;;22.77;42.71;99186.81;5092006;28;40019;-80
2022/06/13 07:00:37;;;;;;;2.33;1.37;;;;;;;22.97;41.90;99165.75;5074346;28;41220;-80
2022/06/13 07:03:05;;;;;;;1.30;1.07;;;;;;;23.31;41.87;99189.06;5074183;28;39107;-81
2022/06/13 07:05:33;;;;;;;2.23;1.30;;;;;;;23.80;40.99;99193.47;5074274;28;41739;-78
2022/06/13 07:08:01;;;;;;;1.67;1.43;;;;;;;24.20;40.56;99202.50;5073789;28;42856;-79
2022/06/13 07:10:29;;;;;;;3.03;1.30;;;;;;;24.42;40.74;99201.75;5073975;28;42269;-79
2022/06/13 07:12:57;;;;;;;4.30;1.10;;;;;;;24.38;39.52;99213.94;5091008;28;40944;-79
2022/06/13 07:15:25;;;;;;;3.57;1.20;;;;;;;24.29;39.88;99201.47;5073958;28;41482;-77
2022/06/13 07:17:53;;;;;;;1.83;1.30;;;;;;;24.31;38.89;99211.13;5074035;28;42726;-75
2022/06/13 07:20:21;;;;;;;2.53;1.40;;;;;;;24.32;40.19;99206.53;5092122;28;42447;-76
2022/06/13 07:22:51;;;;;;;3.37;1.37;;;;;;;24.39;40.05;99207.53;5093878;28;40259;-74
2022/06/13 07:25:22;;;;;;;2.03;1.30;;;;;;;24.53;39.59;99224.91;5094639;28;41452;-80
2022/06/13 07:27:50;;;;;;;3.43;1.40;;;;;;;24.85;39.10;99226.63;5092489;28;42791;-80
2022/06/13 07:30:19;;;;;;;1.40;1.30;;;;;;;25.67;37.45;99230.50;5095655;28;42131;-78
2022/06/13 07:32:48;;;;;;;2.80;1.10;;;;;;;26.80;34.77;99242.84;5094194;28;40769;-79
2022/06/13 07:35:19;;;;;;;2.17;1.33;;;;;;;27.98;33.78;99256.00;5094549;28;41411;-76
2022/06/13 07:40:36;;;;;;;4.33;1.10;;;;;;;29.76;31.00;99273.22;5094489;28;41025;-79
2022/06/13 07:43:06;;;;;;;2.03;1.27;;;;;;;30.36;29.86;99294.03;5092028;28;40930;-78
2022/06/13 07:45:39;;;;;;;4.30;1.20;;;;;;;30.27;29.54;99281.66;5077342;28;40745;-78
2022/06/13 07:48:07;;;;;;;3.77;1.30;;;;;;;29.25;29.41;99287.38;5090889;28;42674;-75
2022/06/13 07:50:37;;;;;;;1.57;0.97;;;;;;;28.30;31.45;99283.72;5095309;28;41982;-76
2022/06/13 07:53:04;;;;;;;1.80;1.20;;;;;;;27.42;32.30;99261.34;5095331;28;39794;-78
2022/06/13 07:55:33;;;;;;;2.17;1.20;;;;;;;27.11;33.14;99266.22;5076992;28;41785;-75
2022/06/13 07:58:01;;;;;;;3.80;1.77;;;;;;;26.74;33.78;99243.59;5093639;28;41678;-77
2022/06/13 08:00:33;;;;;;;3.10;1.30;;;;;;;26.87;33.65;99261.09;5094504;28;42372;-76
2022/06/13 08:03:02;;;;;;;2.17;1.10;;;;;;;28.24;31.53;99272.56;5076634;28;40157;-78
2022/06/13 08:05:30;;;;;;;1.90;1.23;;;;;;;29.92;30.08;99277.44;5094259;28;40638;-74
2022/06/13 08:07:59;;;;;;;2.50;1.10;;;;;;;32.07;27.52;99294.31;5102885;28;43690;-78
2022/06/13 08:10:27;;;;;;;1.00;0.90;;;;;;;34.06;25.30;99310.09;5100986;28;42909;-75
2022/06/13 08:12:55;;;;;;;2.13;1.20;;;;;;;35.87;22.85;99326.22;5101410;28;38770;-75
2022/06/13 08:15:24;;;;;;;2.40;1.38;;;;;;;37.29;21.20;99336.72;5102054;28;41990;-74
2022/06/13 08:17:52;;;;;;;2.35;1.40;;;;;;;38.14;20.38;99339.88;5101305;28;43048;-74
2022/06/13 08:20:20;;;;;;;2.13;1.50;;;;;;;39.17;19.34;99340.34;5100786;28;40894;-80
2022/06/13 08:22:51;;;;;;;1.88;1.17;;;;;;;39.87;18.37;99353.63;5083971;28;39114;-74
2022/06/13 08:25:23;;;;;;;2.67;1.48;;;;;;;40.31;18.10;99355.91;5101373;28;41880;-80
2022/06/13 08:27:51;;;;;;;2.15;1.40;;;;;;;40.07;17.94;99356.41;5093194;28;42749;-77
2022/06/13 08:30:19;;;;;;;1.92;1.15;;;;;;;39.78;17.81;99353.31;5076479;28;40518;-79
2022/06/13 08:32:47;;;;;;;1.77;1.35;;;;;;;39.38;18.64;99348.44;5094473;28;39955;-76
2022/06/13 08:35:15;;;;;;;1.73;1.20;;;;;;;39.21;19.17;99324.81;5092601;28;41888;-80
2022/06/13 08:37:42;;;;;;;1.60;1.40;;;;;;;39.29;18.71;99325.13;5076298;28;41518;-77
2022/06/13 08:40:12;;;;;;;3.55;1.33;;;;;;;39.64;18.49;99334.69;5093167;28;41096;-81
2022/06/13 08:42:47;;;;;;;2.88;1.30;;;;;;;39.89;17.78;99337.53;5076168;28;39895;-79
2022/06/13 08:45:22;;;;;;;2.55;1.13;;;;;;;40.35;17.61;99334.78;5093284;28;40554;-80
2022/06/13 08:47:56;;;;;;;2.58;1.50;;;;;;;39.37;18.18;99332.91;5092803;28;42080;-83
2022/06/13 08:50:37;;;;;;;1.60;1.27;;;;;;;38.20;18.52;99336.06;5089994;28;43237;-75
2022/06/13 08:53:10;;;;;;;2.53;1.25;;;;;;;37.95;18.90;99334.72;5076296;28;38793;-74
2022/06/13 08:55:45;;;;;;;1.57;1.27;;;;;;;37.93;18.54;99331.38;5093220;28;41959;-76
2022/06/13 08:58:21;;;;;;;1.40;1.30;;;;;;;38.43;18.17;99335.69;5091292;28;42541;-80
2022/06/13 09:00:57;;;;;;;1.30;1.20;;;;;;;39.23;18.27;99345.59;5090800;28;42427;-80
2022/06/13 09:03:32;;;;;;;1.83;1.40;;;;;;;39.25;17.28;99348.94;5092025;28;39954;-79
2022/06/13 09:06:04;;;;;;;1.95;1.20;;;;;;;39.01;17.61;99344.97;5091233;28;41463;-77
2022/06/13 09:08:39;;;;;;;1.33;1.23;;;;;;;38.94;17.02;99358.19;5093049;28;42540;-82
2022/06/13 09:11:15;;;;;;;2.67;1.10;;;;;;;38.99;17.32;99330.53;5075810;28;41096;-79
2022/06/13 09:13:52;;;;;;;2.45;1.00;;;;;;;39.13;17.42;99359.44;5092734;28;38985;-76
2022/06/13 09:16:27;;;;;;;2.40;1.10;;;;;;;39.91;17.26;99368.63;5075877;28;41199;-78
2022/06/13 09:19:01;;;;;;;2.65;1.25;;;;;;;41.15;15.82;99377.47;5092434;28;42109;-82
2022/06/13 09:21:36;;;;;;;1.75;1.10;;;;;;;39.54;16.16;99346.59;5075394;28;42211;-78
2022/06/13 09:24:11;;;;;;;1.33;1.00;;;;;;;37.27;17.66;99366.53;5075636;28;39533;-76
2022/06/13 09:26:46;;;;;;;2.30;1.10;;;;;;;35.63;19.17;99363.22;5075431;28;40954;-79
2022/06/13 09:29:21;;;;;;;1.80;0.80;;;;;;;35.01;18.35;99368.53;5091862;28;43444;-82
2022/06/13 09:31:55;;;;;;;1.47;0.97;;;;;;;35.08;18.37;99369.25;5090477;28;43190;-79
2022/06/13 09:34:29;;;;;;;1.67;1.00;;;;;;;35.56;18.00;99376.31;5092313;28;38592;-82
2022/06/13 09:37:06;;;;;;;2.20;1.00;;;;;;;36.89;17.45;99374.81;5090421;28;41854;-78
2022/06/13 09:39:33;;;;;;;1.87;0.90;;;;;;;38.43;16.47;99378.03;5091627;28;42527;-77
2022/06/13 09:42:37;;;;;;;2.15;1.10;;;;;;;39.69;15.83;99388.22;5093371;28;42362;-82
2022/06/13 09:45:32;;;;;;;1.52;1.20;;;;;;;40.20;15.23;99399.44;5081757;28;38866;-78
2022/06/13 09:48:13;;;;;;;2.67;1.00;;;;;;;40.61;14.73;99400.31;5089617;28;42936;-79
2022/06/13 09:50:46;;;;;;;1.05;0.95;;;;;;;40.72;15.26;99390.88;5088901;28;43583;-80
2022/06/13 09:53:22;;;;;;;1.67;0.85;;;;;;;41.30;14.67;99402.41;5090885;28;42734;-77
2022/06/13 09:55:56;;;;;;;1.23;0.93;;;;;;;41.69;14.28;99402.56;5075184;28;39122;-78
2022/06/13 09:58:32;;;;;;;1.10;1.00;;;;;;;41.81;14.76;99397.47;5091592;28;40732;-81
2022/06/13 10:01:08;;;;;;;2.08;1.05;;;;;;;41.76;13.93;99405.03;5091902;28;42844;-83
2022/06/13 10:03:47;;;;;;;1.85;0.93;;;;;;;40.11;15.00;99413.03;5074942;28;41644;-81
2022/06/13 10:06:22;;;;;;;0.80;0.80;;;;;;;38.75;16.53;99389.09;5092043;28;39156;-81
2022/06/13 10:09:02;;;;;;;1.70;1.20;;;;;;;38.85;16.81;99387.47;5091759;28;41812;-76
2022/06/13 10:11:42;;;;;;;1.47;1.10;;;;;;;38.62;16.67;99380.41;5089889;28;43972;-83
2022/06/13 10:14:31;;;;;;;1.20;1.10;;;;;;;38.06;17.42;99375.19;5074769;28;41208;-77
2022/06/13 10:17:17;;;;;;;1.63;1.00;;;;;;;38.00;16.85;99381.75;5089742;28;40830;-76
2022/06/13 10:19:57;;;;;;;0.93;0.90;;;;;;;37.96;16.97;99383.38;5092552;28;42629;-84
2022/06/13 10:22:36;;;;;;;2.23;1.33;;;;;;;37.13;17.62;99353.34;5089984;28;43900;-81
2022/06/13 10:25:20;;;;;;;2.03;1.20;;;;;;;36.43;17.99;99379.63;5089921;28;42186;-81
2022/06/13 10:28:04;;;;;;;1.33;1.03;;;;;;;35.59;18.37;99360.16;5089258;28;40865;-75
2022/06/13 10:30:42;;;;;;;1.40;0.90;;;;;;;35.30;20.16;99355.69;5074461;28;40878;-82
2022/06/13 10:33:36;;;;;;;2.07;1.33;;;;;;;35.73;19.18;99365.38;5089014;28;42642;-79
2022/06/13 10:36:14;;;;;;;1.30;1.10;;;;;;;36.25;18.04;99375.19;5074114;28;40845;-78
2022/06/13 10:38:56;;;;;;;1.30;1.20;;;;;;;36.40;17.67;99365.47;5089691;28;39934;-75
2022/06/13 10:41:25;;;;;;;2.37;1.70;;;;;;;36.11;17.90;99372.97;5073835;28;40154;-82
2022/06/13 10:43:55;;;;;;;5.20;1.40;;;;;;;35.68;18.26;99368.84;5074010;28;43345;-76
2022/06/13 10:46:23;;;;;;;5.70;1.40;;;;;;;34.84;18.91;99362.09;5092226;28;42309;-79
2022/06/13 10:48:57;;;;;;;1.60;1.10;;;;;;;34.27;19.09;99366.47;5090648;28;39914;-80
2022/06/13 10:51:24;;;;;;;2.20;1.00;;;;;;;33.76;19.78;99365.09;5074394;28;40931;-77
2022/06/13 10:54:02;;;;;;;2.73;1.20;;;;;;;33.51;22.38;99344.06;5074182;28;42374;-79
2022/06/13 10:56:37;;;;;;;1.97;1.23;;;;;;;33.51;20.15;99356.97;5088379;28;42246;-78
2022/06/13 10:59:05;;;;;;;1.40;1.20;;;;;;;33.37;20.18;99361.81;5090142;28;40212;-79
2022/06/13 11:01:33;;;;;;;2.00;1.17;;;;;;;33.29;21.13;99359.38;5073956;28;43230;-77
2022/06/13 11:04:06;;;;;;;2.13;1.20;;;;;;;33.40;19.85;99360.50;5091936;28;43697;-77
2022/06/13 11:06:39;;;;;;;1.70;1.13;;;;;;;33.48;22.02;99344.56;5087503;28;42294;-76
2022/06/13 11:09:21;;;;;;;1.30;0.90;;;;;;;33.13;22.09;99355.34;5090714;28;40657;-79
2022/06/13 11:11:55;;;;;;;2.80;1.13;;;;;;;32.94;21.74;99358.28;5089034;28;41895;-74
2022/06/13 11:14:32;;;;;;;3.07;1.17;;;;;;;32.92;22.90;99347.53;5091489;28;42496;-78
2022/06/13 11:22:40;;;;;;;1.30;1.20;;;;;;;32.07;22.15;99355.44;5087749;28;42317;-81
2022/06/13 11:25:21;;;;;;;5.07;2.40;;;;;;;31.43;23.55;99355.59;5073932;28;41696;-77
2022/06/13 11:28:02;;;;;;;2.43;1.73;;;;;;;31.19;23.21;99361.81;5088816;28;42700;-82
2022/06/13 11:30:47;;;;;;;2.17;1.53;;;;;;;31.52;24.24;99345.25;5088767;28;39872;-83
2022/06/13 11:33:30;;;;;;;2.23;1.43;;;;;;;31.69;24.20;99340.97;5073259;28;41062;-80
2022/06/13 11:36:03;;;;;;;3.27;1.63;;;;;;;31.64;24.04;99338.91;5090519;28;42943;-78
2022/06/13 11:38:33;;;;;;;2.43;1.40;;;;;;;31.78;22.62;99356.91;5088679;28;42906;-83
2022/06/13 11:41:11;;;;;;;1.77;1.40;;;;;;;32.22;23.37;99354.31;5090422;28;39953;-81
2022/06/13 11:43:45;;;;;;;2.03;1.50;;;;;;;32.56;23.45;99336.50;5073784;28;40870;-80
2022/06/13 11:46:30;;;;;;;1.23;1.13;;;;;;;32.98;21.23;99365.84;5088430;28;43905;-77
2022/06/13 11:49:03;;;;;;;2.63;1.70;;;;;;;34.01;21.26;99357.53;5072960;28;41643;-80
2022/06/13 11:51:40;;;;;;;1.70;1.43;;;;;;;34.93;19.12;99377.16;5088738;28;40643;-79
2022/06/13 11:54:21;;;;;;;2.07;1.30;;;;;;;35.29;18.60;99376.03;5090625;28;41935;-81
2022/06/13 11:57:17;;;;;;;1.60;1.50;;;;;;;35.49;18.27;99370.09;5091072;28;42891;-78
2022/06/13 11:59:49;;;;;;;3.53;1.50;;;;;;;35.91;20.71;99352.22;5091334;28;42901;-85
2022/06/13 12:02:18;;;;;;;1.77;1.30;;;;;;;36.64;17.28;99378.84;5087100;28;40897;-77
2022/06/13 12:04:47;;;;;;;1.87;1.23;;;;;;;36.43;17.67;99385.16;5089784;28;40888;-82
2022/06/13 12:07:26;;;;;;;1.37;1.10;;;;;;;37.59;17.54;99385.97;5073148;28;43141;-77
2022/06/13 12:09:56;;;;;;;2.53;1.20;;;;;;;38.38;15.87;99393.75;5074983;28;42555;-81
2022/06/13 12:12:26;;;;;;;2.10;1.10;;;;;;;37.94;16.42;99382.81;5093357;28;39317;-81
2022/06/13 12:14:56;;;;;;;1.27;0.90;;;;;;;36.37;17.74;99382.53;5093354;28;41769;-77
2022/06/13 12:17:29;;;;;;;2.20;1.30;;;;;;;35.01;18.64;99381.44;5093117;28;44240;-76
2022/06/13 12:20:12;;;;;;;1.60;1.10;;;;;;;35.19;18.46;99382.16;5076408;28;42457;-79